sensor_id;sensor_type;location;lat;lon;timestamp;P1;durP1;ratioP1;P2;durP2;ratioP2
65656;SDS011;57397;50.096;14.404;2023-05-29T00:01:14;2.20;;;1.60;;
65656;SDS011;57397;50.096;14.404;2023-05-29T00:03:43;2.38;;;1.73;;
65656;SDS011;57397;50.096;14.404;2023-05-29T00:06:09;2.38;;;1.70;;
65656;SDS011;57397;50.096;14.404;2023-05-29T00:08:35;2.85;;;1.73;;
65656;SDS011;57397;50.096;14.404;2023-05-29T00:11:01;2.50;;;1.65;;
65656;SDS011;57397;50.096;14.404;2023-05-29T00:13:26;2.40;;;1.70;;
65656;SDS011;57397;50.096;14.404;2023-05-29T00:15:52;2.65;;;1.80;;
65656;SDS011;57397;50.096;14.404;2023-05-29T00:18:18;1.67;;;1.45;;
65656;SDS011;57397;50.096;14.404;2023-05-29T00:20:43;3.22;;;1.70;;
65656;SDS011;57397;50.096;14.404;2023-05-29T00:23:09;2.75;;;1.70;;
65656;SDS011;57397;50.096;14.404;2023-05-29T00:25:35;2.30;;;1.60;;
65656;SDS011;57397;50.096;14.404;2023-05-29T00:28:00;2.35;;;1.70;;
65656;SDS011;57397;50.096;14.404;2023-05-29T00:30:26;2.80;;;1.70;;
65656;SDS011;57397;50.096;14.404;2023-05-29T00:32:52;2.38;;;1.83;;
65656;SDS011;57397;50.096;14.404;2023-05-29T00:35:17;2.45;;;1.90;;
65656;SDS011;57397;50.096;14.404;2023-05-29T00:37:43;3.22;;;1.90;;
65656;SDS011;57397;50.096;14.404;2023-05-29T00:40:09;3.47;;;1.90;;
65656;SDS011;57397;50.096;14.404;2023-05-29T00:42:35;2.30;;;1.70;;
65656;SDS011;57397;50.096;14.404;2023-05-29T00:45:01;2.53;;;1.70;;
65656;SDS011;57397;50.096;14.404;2023-05-29T00:47:27;4.05;;;1.70;;
65656;SDS011;57397;50.096;14.404;2023-05-29T00:49:52;2.42;;;1.48;;
65656;SDS011;57397;50.096;14.404;2023-05-29T00:52:18;1.80;;;1.48;;
65656;SDS011;57397;50.096;14.404;2023-05-29T00:54:45;2.47;;;1.70;;
65656;SDS011;57397;50.096;14.404;2023-05-29T00:57:12;2.20;;;1.60;;
65656;SDS011;57397;50.096;14.404;2023-05-29T00:59:38;2.25;;;1.70;;
65656;SDS011;57397;50.096;14.404;2023-05-29T01:02:04;2.50;;;1.83;;
65656;SDS011;57397;50.096;14.404;2023-05-29T01:04:31;2.10;;;1.63;;
65656;SDS011;57397;50.096;14.404;2023-05-29T01:06:59;2.53;;;1.70;;
65656;SDS011;57397;50.096;14.404;2023-05-29T01:09:29;2.17;;;1.50;;
65656;SDS011;57397;50.096;14.404;2023-05-29T01:17:17;3.75;;;1.85;;
65656;SDS011;57397;50.096;14.404;2023-05-29T01:27:49;3.97;;;1.90;;
65656;SDS011;57397;50.096;14.404;2023-05-29T01:30:15;2.40;;;1.88;;
65656;SDS011;57397;50.096;14.404;2023-05-29T01:32:41;2.55;;;1.90;;
65656;SDS011;57397;50.096;14.404;2023-05-29T01:35:07;2.38;;;1.73;;
65656;SDS011;57397;50.096;14.404;2023-05-29T01:37:36;2.00;;;1.60;;
65656;SDS011;57397;50.096;14.404;2023-05-29T01:40:02;2.65;;;1.60;;
65656;SDS011;57397;50.096;14.404;2023-05-29T01:42:29;2.80;;;1.90;;
65656;SDS011;57397;50.096;14.404;2023-05-29T01:44:55;3.13;;;1.80;;
65656;SDS011;57397;50.096;14.404;2023-05-29T01:47:21;2.60;;;1.70;;
65656;SDS011;57397;50.096;14.404;2023-05-29T01:49:47;2.80;;;1.73;;
65656;SDS011;57397;50.096;14.404;2023-05-29T01:52:15;2.75;;;1.92;;
65656;SDS011;57397;50.096;14.404;2023-05-29T01:54:41;2.58;;;1.77;;
65656;SDS011;57397;50.096;14.404;2023-05-29T01:57:06;3.38;;;1.98;;
65656;SDS011;57397;50.096;14.404;2023-05-29T01:59:32;2.58;;;1.90;;
65656;SDS011;57397;50.096;14.404;2023-05-29T02:02:05;2.70;;;1.83;;
65656;SDS011;57397;50.096;14.404;2023-05-29T02:06:59;2.70;;;1.70;;
65656;SDS011;57397;50.096;14.404;2023-05-29T02:09:24;2.38;;;1.80;;
65656;SDS011;57397;50.096;14.404;2023-05-29T02:11:50;2.45;;;1.90;;
65656;SDS011;57397;50.096;14.404;2023-05-29T02:14:16;4.38;;;1.80;;
65656;SDS011;57397;50.096;14.404;2023-05-29T02:16:42;2.92;;;2.03;;
65656;SDS011;57397;50.096;14.404;2023-05-29T02:19:09;2.25;;;1.70;;
65656;SDS011;57397;50.096;14.404;2023-05-29T02:21:37;2.40;;;1.73;;
65656;SDS011;57397;50.096;14.404;2023-05-29T02:24:03;2.63;;;1.83;;
65656;SDS011;57397;50.096;14.404;2023-05-29T02:26:29;2.72;;;1.80;;
65656;SDS011;57397;50.096;14.404;2023-05-29T02:28:54;2.40;;;1.85;;
65656;SDS011;57397;50.096;14.404;2023-05-29T02:31:21;2.78;;;1.90;;
65656;SDS011;57397;50.096;14.404;2023-05-29T02:33:46;2.50;;;1.80;;
65656;SDS011;57397;50.096;14.404;2023-05-29T02:36:12;2.35;;;1.92;;
65656;SDS011;57397;50.096;14.404;2023-05-29T02:38:37;3.38;;;1.95;;
65656;SDS011;57397;50.096;14.404;2023-05-29T02:41:03;2.30;;;1.75;;
65656;SDS011;57397;50.096;14.404;2023-05-29T02:43:28;2.88;;;1.90;;
65656;SDS011;57397;50.096;14.404;2023-05-29T02:45:54;2.13;;;1.67;;
65656;SDS011;57397;50.096;14.404;2023-05-29T02:48:20;2.78;;;2.03;;
65656;SDS011;57397;50.096;14.404;2023-05-29T02:50:46;3.10;;;2.10;;
65656;SDS011;57397;50.096;14.404;2023-05-29T02:53:11;3.17;;;2.45;;
65656;SDS011;57397;50.096;14.404;2023-05-29T02:55:37;3.05;;;2.20;;
65656;SDS011;57397;50.096;14.404;2023-05-29T02:58:02;3.97;;;2.35;;
65656;SDS011;57397;50.096;14.404;2023-05-29T03:00:28;3.40;;;2.30;;
65656;SDS011;57397;50.096;14.404;2023-05-29T03:02:54;4.18;;;2.30;;
65656;SDS011;57397;50.096;14.404;2023-05-29T03:05:20;3.42;;;2.22;;
65656;SDS011;57397;50.096;14.404;2023-05-29T03:07:46;3.60;;;2.42;;
65656;SDS011;57397;50.096;14.404;2023-05-29T03:10:11;2.88;;;2.22;;
65656;SDS011;57397;50.096;14.404;2023-05-29T03:12:37;3.10;;;2.10;;
65656;SDS011;57397;50.096;14.404;2023-05-29T03:15:03;3.60;;;2.20;;
65656;SDS011;57397;50.096;14.404;2023-05-29T03:17:29;3.20;;;2.15;;
65656;SDS011;57397;50.096;14.404;2023-05-29T03:19:54;5.15;;;2.15;;
65656;SDS011;57397;50.096;14.404;2023-05-29T03:22:20;3.63;;;2.20;;
65656;SDS011;57397;50.096;14.404;2023-05-29T03:24:46;3.28;;;2.30;;
65656;SDS011;57397;50.096;14.404;2023-05-29T03:27:11;3.92;;;2.55;;
65656;SDS011;57397;50.096;14.404;2023-05-29T03:29:37;3.53;;;2.30;;
65656;SDS011;57397;50.096;14.404;2023-05-29T03:32:02;3.10;;;2.30;;
65656;SDS011;57397;50.096;14.404;2023-05-29T03:34:28;2.97;;;2.10;;
65656;SDS011;57397;50.096;14.404;2023-05-29T03:36:54;2.97;;;2.13;;
65656;SDS011;57397;50.096;14.404;2023-05-29T03:39:19;3.70;;;2.65;;
65656;SDS011;57397;50.096;14.404;2023-05-29T03:41:45;2.92;;;2.22;;
65656;SDS011;57397;50.096;14.404;2023-05-29T03:44:10;2.63;;;2.17;;
65656;SDS011;57397;50.096;14.404;2023-05-29T03:46:36;3.33;;;1.90;;
65656;SDS011;57397;50.096;14.404;2023-05-29T03:49:01;3.45;;;2.22;;
65656;SDS011;57397;50.096;14.404;2023-05-29T03:51:27;3.35;;;2.05;;
65656;SDS011;57397;50.096;14.404;2023-05-29T03:53:52;3.17;;;2.25;;
65656;SDS011;57397;50.096;14.404;2023-05-29T03:56:18;2.83;;;2.20;;
65656;SDS011;57397;50.096;14.404;2023-05-29T03:58:43;3.53;;;2.40;;
65656;SDS011;57397;50.096;14.404;2023-05-29T04:01:09;2.75;;;2.35;;
65656;SDS011;57397;50.096;14.404;2023-05-29T04:03:35;3.08;;;2.20;;
65656;SDS011;57397;50.096;14.404;2023-05-29T04:06:01;3.70;;;2.33;;
65656;SDS011;57397;50.096;14.404;2023-05-29T04:08:27;2.97;;;2.15;;
65656;SDS011;57397;50.096;14.404;2023-05-29T04:10:52;3.33;;;2.10;;
65656;SDS011;57397;50.096;14.404;2023-05-29T04:13:20;2.67;;;2.05;;
65656;SDS011;57397;50.096;14.404;2023-05-29T04:15:46;2.85;;;2.10;;
65656;SDS011;57397;50.096;14.404;2023-05-29T04:18:12;3.83;;;2.30;;
65656;SDS011;57397;50.096;14.404;2023-05-29T04:20:38;2.67;;;1.90;;
65656;SDS011;57397;50.096;14.404;2023-05-29T04:23:03;4.40;;;2.03;;
65656;SDS011;57397;50.096;14.404;2023-05-29T04:25:29;3.35;;;2.10;;
65656;SDS011;57397;50.096;14.404;2023-05-29T04:27:54;2.80;;;2.20;;
65656;SDS011;57397;50.096;14.404;2023-05-29T04:30:20;3.45;;;2.10;;
65656;SDS011;57397;50.096;14.404;2023-05-29T04:32:46;3.13;;;1.92;;
65656;SDS011;57397;50.096;14.404;2023-05-29T04:35:12;2.83;;;2.03;;
65656;SDS011;57397;50.096;14.404;2023-05-29T04:37:38;2.53;;;1.90;;
65656;SDS011;57397;50.096;14.404;2023-05-29T04:40:05;3.00;;;2.10;;
65656;SDS011;57397;50.096;14.404;2023-05-29T04:42:35;2.95;;;2.00;;
65656;SDS011;57397;50.096;14.404;2023-05-29T04:45:02;2.85;;;2.15;;
65656;SDS011;57397;50.096;14.404;2023-05-29T04:47:30;2.97;;;2.00;;
65656;SDS011;57397;50.096;14.404;2023-05-29T04:49:58;2.60;;;2.10;;
65656;SDS011;57397;50.096;14.404;2023-05-29T04:52:24;2.63;;;2.05;;
65656;SDS011;57397;50.096;14.404;2023-05-29T04:54:50;3.38;;;1.92;;
65656;SDS011;57397;50.096;14.404;2023-05-29T04:57:16;2.83;;;2.05;;
65656;SDS011;57397;50.096;14.404;2023-05-29T04:59:41;2.60;;;2.00;;
65656;SDS011;57397;50.096;14.404;2023-05-29T05:02:07;3.20;;;1.90;;
65656;SDS011;57397;50.096;14.404;2023-05-29T05:04:32;3.10;;;2.05;;
65656;SDS011;57397;50.096;14.404;2023-05-29T05:06:58;3.10;;;2.20;;
65656;SDS011;57397;50.096;14.404;2023-05-29T05:09:23;3.47;;;2.20;;
65656;SDS011;57397;50.096;14.404;2023-05-29T05:11:49;2.97;;;1.90;;
65656;SDS011;57397;50.096;14.404;2023-05-29T05:14:15;3.00;;;2.17;;
65656;SDS011;57397;50.096;14.404;2023-05-29T05:16:40;2.72;;;1.90;;
65656;SDS011;57397;50.096;14.404;2023-05-29T05:19:06;3.50;;;2.20;;
65656;SDS011;57397;50.096;14.404;2023-05-29T05:21:32;3.17;;;2.08;;
65656;SDS011;57397;50.096;14.404;2023-05-29T05:23:58;3.05;;;2.13;;
65656;SDS011;57397;50.096;14.404;2023-05-29T05:26:23;2.75;;;1.80;;
65656;SDS011;57397;50.096;14.404;2023-05-29T05:28:49;2.85;;;2.10;;
65656;SDS011;57397;50.096;14.404;2023-05-29T05:31:14;3.03;;;2.20;;
65656;SDS011;57397;50.096;14.404;2023-05-29T05:33:40;3.53;;;2.08;;
65656;SDS011;57397;50.096;14.404;2023-05-29T05:36:05;2.60;;;2.00;;
65656;SDS011;57397;50.096;14.404;2023-05-29T05:38:31;2.78;;;1.98;;
65656;SDS011;57397;50.096;14.404;2023-05-29T05:40:57;2.75;;;2.10;;
65656;SDS011;57397;50.096;14.404;2023-05-29T05:43:23;2.60;;;2.05;;
65656;SDS011;57397;50.096;14.404;2023-05-29T05:45:49;3.60;;;2.00;;
65656;SDS011;57397;50.096;14.404;2023-05-29T05:48:15;3.08;;;1.85;;
65656;SDS011;57397;50.096;14.404;2023-05-29T05:50:40;2.63;;;1.88;;
65656;SDS011;57397;50.096;14.404;2023-05-29T05:53:06;2.97;;;1.88;;
65656;SDS011;57397;50.096;14.404;2023-05-29T05:55:32;2.75;;;1.80;;
65656;SDS011;57397;50.096;14.404;2023-05-29T05:57:57;2.53;;;2.00;;
65656;SDS011;57397;50.096;14.404;2023-05-29T06:00:23;3.28;;;2.10;;
65656;SDS011;57397;50.096;14.404;2023-05-29T06:02:49;2.40;;;1.90;;
65656;SDS011;57397;50.096;14.404;2023-05-29T06:05:14;2.30;;;1.77;;
65656;SDS011;57397;50.096;14.404;2023-05-29T06:07:40;2.63;;;1.98;;
65656;SDS011;57397;50.096;14.404;2023-05-29T06:10:06;2.63;;;1.75;;
65656;SDS011;57397;50.096;14.404;2023-05-29T06:12:32;3.10;;;1.83;;
65656;SDS011;57397;50.096;14.404;2023-05-29T06:14:58;3.33;;;1.98;;
65656;SDS011;57397;50.096;14.404;2023-05-29T06:17:24;2.15;;;1.80;;
65656;SDS011;57397;50.096;14.404;2023-05-29T06:19:50;2.22;;;1.70;;
65656;SDS011;57397;50.096;14.404;2023-05-29T06:22:15;2.95;;;1.77;;
65656;SDS011;57397;50.096;14.404;2023-05-29T06:24:41;2.13;;;1.70;;
65656;SDS011;57397;50.096;14.404;2023-05-29T06:27:07;2.13;;;1.65;;
65656;SDS011;57397;50.096;14.404;2023-05-29T06:29:33;2.45;;;1.77;;
65656;SDS011;57397;50.096;14.404;2023-05-29T06:31:59;3.40;;;1.90;;
65656;SDS011;57397;50.096;14.404;2023-05-29T06:34:25;2.50;;;1.80;;
65656;SDS011;57397;50.096;14.404;2023-05-29T06:36:51;2.88;;;2.00;;
65656;SDS011;57397;50.096;14.404;2023-05-29T06:39:16;2.33;;;1.73;;
65656;SDS011;57397;50.096;14.404;2023-05-29T06:41:43;2.10;;;1.70;;
65656;SDS011;57397;50.096;14.404;2023-05-29T06:44:09;2.90;;;2.00;;
65656;SDS011;57397;50.096;14.404;2023-05-29T06:46:35;2.35;;;1.70;;
65656;SDS011;57397;50.096;14.404;2023-05-29T06:49:00;3.72;;;1.90;;
65656;SDS011;57397;50.096;14.404;2023-05-29T06:51:26;2.10;;;1.77;;
65656;SDS011;57397;50.096;14.404;2023-05-29T06:53:51;2.25;;;1.67;;
65656;SDS011;57397;50.096;14.404;2023-05-29T06:56:17;2.83;;;1.88;;
65656;SDS011;57397;50.096;14.404;2023-05-29T06:58:42;2.67;;;1.90;;
65656;SDS011;57397;50.096;14.404;2023-05-29T07:01:09;2.10;;;1.60;;
65656;SDS011;57397;50.096;14.404;2023-05-29T07:03:34;2.35;;;1.70;;
65656;SDS011;57397;50.096;14.404;2023-05-29T07:06:01;2.63;;;1.67;;
65656;SDS011;57397;50.096;14.404;2023-05-29T07:08:27;2.58;;;1.85;;
65656;SDS011;57397;50.096;14.404;2023-05-29T07:10:52;2.95;;;1.85;;
65656;SDS011;57397;50.096;14.404;2023-05-29T07:13:18;2.95;;;1.90;;
65656;SDS011;57397;50.096;14.404;2023-05-29T07:15:44;2.35;;;1.70;;
65656;SDS011;57397;50.096;14.404;2023-05-29T07:18:10;2.17;;;1.70;;
65656;SDS011;57397;50.096;14.404;2023-05-29T07:20:36;2.67;;;1.50;;
65656;SDS011;57397;50.096;14.404;2023-05-29T07:23:02;2.97;;;1.83;;
65656;SDS011;57397;50.096;14.404;2023-05-29T07:25:28;3.78;;;1.70;;
65656;SDS011;57397;50.096;14.404;2023-05-29T07:27:54;2.60;;;1.50;;
65656;SDS011;57397;50.096;14.404;2023-05-29T07:30:20;2.40;;;1.60;;
65656;SDS011;57397;50.096;14.404;2023-05-29T07:32:45;2.00;;;1.58;;
65656;SDS011;57397;50.096;14.404;2023-05-29T07:35:11;2.65;;;1.70;;
65656;SDS011;57397;50.096;14.404;2023-05-29T07:37:37;2.95;;;1.95;;
65656;SDS011;57397;50.096;14.404;2023-05-29T07:40:02;2.92;;;1.92;;
65656;SDS011;57397;50.096;14.404;2023-05-29T07:42:35;2.40;;;1.60;;
65656;SDS011;57397;50.096;14.404;2023-05-29T07:45:00;2.40;;;1.52;;
65656;SDS011;57397;50.096;14.404;2023-05-29T07:47:26;2.05;;;1.70;;
65656;SDS011;57397;50.096;14.404;2023-05-29T07:49:51;2.50;;;1.67;;
65656;SDS011;57397;50.096;14.404;2023-05-29T07:52:17;2.53;;;1.70;;
65656;SDS011;57397;50.096;14.404;2023-05-29T07:54:43;1.75;;;1.55;;
65656;SDS011;57397;50.096;14.404;2023-05-29T07:57:09;2.67;;;1.50;;
65656;SDS011;57397;50.096;14.404;2023-05-29T07:59:38;2.55;;;1.80;;
65656;SDS011;57397;50.096;14.404;2023-05-29T08:02:06;2.38;;;1.75;;
65656;SDS011;57397;50.096;14.404;2023-05-29T08:04:31;2.13;;;1.70;;
65656;SDS011;57397;50.096;14.404;2023-05-29T08:06:58;1.92;;;1.48;;
65656;SDS011;57397;50.096;14.404;2023-05-29T08:09:24;2.50;;;1.80;;
65656;SDS011;57397;50.096;14.404;2023-05-29T08:11:49;2.00;;;1.73;;
65656;SDS011;57397;50.096;14.404;2023-05-29T08:14:15;3.40;;;1.65;;
65656;SDS011;57397;50.096;14.404;2023-05-29T08:16:41;2.05;;;1.65;;
65656;SDS011;57397;50.096;14.404;2023-05-29T08:19:07;2.90;;;1.60;;
65656;SDS011;57397;50.096;14.404;2023-05-29T08:21:32;1.98;;;1.50;;
65656;SDS011;57397;50.096;14.404;2023-05-29T08:23:58;3.47;;;1.60;;
65656;SDS011;57397;50.096;14.404;2023-05-29T08:26:24;1.70;;;1.50;;
65656;SDS011;57397;50.096;14.404;2023-05-29T08:28:51;2.15;;;1.50;;
65656;SDS011;57397;50.096;14.404;2023-05-29T08:31:16;1.90;;;1.42;;
65656;SDS011;57397;50.096;14.404;2023-05-29T08:33:42;2.55;;;1.63;;
65656;SDS011;57397;50.096;14.404;2023-05-29T08:36:07;2.22;;;1.60;;
65656;SDS011;57397;50.096;14.404;2023-05-29T08:38:33;1.80;;;1.50;;
65656;SDS011;57397;50.096;14.404;2023-05-29T08:41:00;3.10;;;2.05;;
65656;SDS011;57397;50.096;14.404;2023-05-29T08:43:29;2.00;;;1.65;;
65656;SDS011;57397;50.096;14.404;2023-05-29T08:45:56;2.97;;;1.50;;
65656;SDS011;57397;50.096;14.404;2023-05-29T08:48:24;2.35;;;1.60;;
65656;SDS011;57397;50.096;14.404;2023-05-29T08:50:53;2.67;;;1.48;;
65656;SDS011;57397;50.096;14.404;2023-05-29T08:53:20;2.53;;;1.75;;
65656;SDS011;57397;50.096;14.404;2023-05-29T08:55:46;2.10;;;1.58;;
65656;SDS011;57397;50.096;14.404;2023-05-29T08:58:16;2.25;;;1.70;;
65656;SDS011;57397;50.096;14.404;2023-05-29T09:00:43;1.67;;;1.40;;
65656;SDS011;57397;50.096;14.404;2023-05-29T09:03:10;2.15;;;1.50;;
65656;SDS011;57397;50.096;14.404;2023-05-29T09:05:36;2.17;;;1.60;;
65656;SDS011;57397;50.096;14.404;2023-05-29T09:08:05;1.90;;;1.42;;
65656;SDS011;57397;50.096;14.404;2023-05-29T09:10:32;2.20;;;1.60;;
65656;SDS011;57397;50.096;14.404;2023-05-29T09:12:58;2.60;;;1.42;;
65656;SDS011;57397;50.096;14.404;2023-05-29T09:15:24;2.13;;;1.55;;
65656;SDS011;57397;50.096;14.404;2023-05-29T09:17:56;2.10;;;1.50;;
65656;SDS011;57397;50.096;14.404;2023-05-29T09:20:22;2.45;;;1.50;;
65656;SDS011;57397;50.096;14.404;2023-05-29T09:22:52;2.58;;;1.50;;
65656;SDS011;57397;50.096;14.404;2023-05-29T09:25:20;3.15;;;1.55;;
65656;SDS011;57397;50.096;14.404;2023-05-29T09:27:50;2.13;;;1.50;;
65656;SDS011;57397;50.096;14.404;2023-05-29T09:33:00;1.88;;;1.50;;
65656;SDS011;57397;50.096;14.404;2023-05-29T09:35:36;2.17;;;1.50;;
65656;SDS011;57397;50.096;14.404;2023-05-29T09:38:03;2.38;;;1.77;;
65656;SDS011;57397;50.096;14.404;2023-05-29T09:40:34;1.63;;;1.30;;
65656;SDS011;57397;50.096;14.404;2023-05-29T09:43:11;1.88;;;1.48;;
65656;SDS011;57397;50.096;14.404;2023-05-29T09:45:41;2.10;;;1.60;;
65656;SDS011;57397;50.096;14.404;2023-05-29T09:48:12;2.28;;;1.50;;
65656;SDS011;57397;50.096;14.404;2023-05-29T09:50:39;2.00;;;1.40;;
65656;SDS011;57397;50.096;14.404;2023-05-29T09:53:15;2.28;;;1.50;;
65656;SDS011;57397;50.096;14.404;2023-05-29T09:55:48;1.98;;;1.40;;
65656;SDS011;57397;50.096;14.404;2023-05-29T09:58:15;3.08;;;1.85;;
65656;SDS011;57397;50.096;14.404;2023-05-29T10:00:41;2.60;;;1.63;;
65656;SDS011;57397;50.096;14.404;2023-05-29T10:03:07;3.05;;;1.60;;
65656;SDS011;57397;50.096;14.404;2023-05-29T10:05:33;2.22;;;1.50;;
65656;SDS011;57397;50.096;14.404;2023-05-29T10:08:00;2.22;;;1.65;;
65656;SDS011;57397;50.096;14.404;2023-05-29T10:10:27;1.98;;;1.45;;
65656;SDS011;57397;50.096;14.404;2023-05-29T10:12:52;1.98;;;1.60;;
65656;SDS011;57397;50.096;14.404;2023-05-29T10:15:19;1.95;;;1.42;;
65656;SDS011;57397;50.096;14.404;2023-05-29T10:17:59;2.10;;;1.48;;
65656;SDS011;57397;50.096;14.404;2023-05-29T10:20:29;2.08;;;1.50;;
65656;SDS011;57397;50.096;14.404;2023-05-29T10:22:57;2.20;;;1.65;;
65656;SDS011;57397;50.096;14.404;2023-05-29T10:25:25;1.98;;;1.33;;
65656;SDS011;57397;50.096;14.404;2023-05-29T10:27:53;1.83;;;1.50;;
65656;SDS011;57397;50.096;14.404;2023-05-29T10:33:08;2.10;;;1.40;;
65656;SDS011;57397;50.096;14.404;2023-05-29T10:35:48;1.88;;;1.63;;
65656;SDS011;57397;50.096;14.404;2023-05-29T10:38:26;2.30;;;1.55;;
65656;SDS011;57397;50.096;14.404;2023-05-29T10:40:52;1.67;;;1.48;;
65656;SDS011;57397;50.096;14.404;2023-05-29T10:43:30;3.28;;;1.63;;
65656;SDS011;57397;50.096;14.404;2023-05-29T10:45:57;1.65;;;1.30;;
65656;SDS011;57397;50.096;14.404;2023-05-29T10:50:53;2.13;;;1.50;;
65656;SDS011;57397;50.096;14.404;2023-05-29T10:53:25;2.08;;;1.30;;
65656;SDS011;57397;50.096;14.404;2023-05-29T10:55:52;2.28;;;1.48;;
65656;SDS011;57397;50.096;14.404;2023-05-29T10:58:18;2.50;;;1.60;;
65656;SDS011;57397;50.096;14.404;2023-05-29T11:00:51;2.22;;;1.48;;
65656;SDS011;57397;50.096;14.404;2023-05-29T11:03:40;2.05;;;1.60;;
65656;SDS011;57397;50.096;14.404;2023-05-29T11:06:07;2.00;;;1.60;;
65656;SDS011;57397;50.096;14.404;2023-05-29T11:08:44;2.55;;;1.70;;
65656;SDS011;57397;50.096;14.404;2023-05-29T11:11:28;2.95;;;1.58;;
65656;SDS011;57397;50.096;14.404;2023-05-29T11:13:55;2.00;;;1.40;;
65656;SDS011;57397;50.096;14.404;2023-05-29T11:18:50;2.63;;;1.55;;
65656;SDS011;57397;50.096;14.404;2023-05-29T11:23:54;2.85;;;1.65;;
65656;SDS011;57397;50.096;14.404;2023-05-29T11:26:21;2.65;;;1.85;;
65656;SDS011;57397;50.096;14.404;2023-05-29T11:28:48;2.10;;;1.67;;
65656;SDS011;57397;50.096;14.404;2023-05-29T11:31:15;2.03;;;1.42;;
65656;SDS011;57397;50.096;14.404;2023-05-29T11:33:42;2.22;;;1.30;;
65656;SDS011;57397;50.096;14.404;2023-05-29T11:36:13;2.30;;;1.80;;
65656;SDS011;57397;50.096;14.404;2023-05-29T11:38:39;1.65;;;1.40;;
65656;SDS011;57397;50.096;14.404;2023-05-29T11:41:05;3.33;;;1.50;;
65656;SDS011;57397;50.096;14.404;2023-05-29T11:43:30;1.35;;;1.25;;
65656;SDS011;57397;50.096;14.404;2023-05-29T11:45:56;1.92;;;1.40;;
65656;SDS011;57397;50.096;14.404;2023-05-29T11:48:22;1.90;;;1.48;;
65656;SDS011;57397;50.096;14.404;2023-05-29T11:50:48;2.45;;;1.50;;
65656;SDS011;57397;50.096;14.404;2023-05-29T11:53:15;1.70;;;1.33;;
65656;SDS011;57397;50.096;14.404;2023-05-29T11:55:40;1.98;;;1.52;;
65656;SDS011;57397;50.096;14.404;2023-05-29T11:58:06;2.17;;;1.42;;
65656;SDS011;57397;50.096;14.404;2023-05-29T12:00:32;2.22;;;1.60;;
65656;SDS011;57397;50.096;14.404;2023-05-29T12:02:59;2.03;;;1.50;;
65656;SDS011;57397;50.096;14.404;2023-05-29T12:05:53;1.83;;;1.30;;
65656;SDS011;57397;50.096;14.404;2023-05-29T12:08:23;2.45;;;1.50;;
65656;SDS011;57397;50.096;14.404;2023-05-29T12:10:49;2.35;;;1.60;;
65656;SDS011;57397;50.096;14.404;2023-05-29T12:13:18;1.80;;;1.30;;
65656;SDS011;57397;50.096;14.404;2023-05-29T12:15:44;1.95;;;1.48;;
65656;SDS011;57397;50.096;14.404;2023-05-29T12:18:10;2.00;;;1.60;;
65656;SDS011;57397;50.096;14.404;2023-05-29T12:20:36;2.30;;;1.40;;
65656;SDS011;57397;50.096;14.404;2023-05-29T12:23:02;2.28;;;1.60;;
65656;SDS011;57397;50.096;14.404;2023-05-29T12:25:28;2.38;;;1.45;;
65656;SDS011;57397;50.096;14.404;2023-05-29T12:27:56;2.60;;;1.55;;
65656;SDS011;57397;50.096;14.404;2023-05-29T12:30:23;2.05;;;1.50;;
65656;SDS011;57397;50.096;14.404;2023-05-29T12:32:49;2.28;;;1.50;;
65656;SDS011;57397;50.096;14.404;2023-05-29T12:35:20;1.80;;;1.48;;
65656;SDS011;57397;50.096;14.404;2023-05-29T12:37:56;2.00;;;1.60;;
65656;SDS011;57397;50.096;14.404;2023-05-29T12:40:25;2.42;;;1.40;;
65656;SDS011;57397;50.096;14.404;2023-05-29T12:42:59;2.00;;;1.50;;
65656;SDS011;57397;50.096;14.404;2023-05-29T12:45:29;2.00;;;1.40;;
65656;SDS011;57397;50.096;14.404;2023-05-29T12:48:05;2.78;;;1.65;;
65656;SDS011;57397;50.096;14.404;2023-05-29T12:50:33;2.25;;;1.40;;
65656;SDS011;57397;50.096;14.404;2023-05-29T12:55:32;2.03;;;1.50;;
65656;SDS011;57397;50.096;14.404;2023-05-29T12:58:11;2.35;;;1.55;;
65656;SDS011;57397;50.096;14.404;2023-05-29T13:00:38;1.95;;;1.40;;
65656;SDS011;57397;50.096;14.404;2023-05-29T13:03:05;1.95;;;1.38;;
65656;SDS011;57397;50.096;14.404;2023-05-29T13:05:32;2.90;;;1.50;;
65656;SDS011;57397;50.096;14.404;2023-05-29T13:07:57;1.85;;;1.38;;
65656;SDS011;57397;50.096;14.404;2023-05-29T13:10:24;2.97;;;1.40;;
65656;SDS011;57397;50.096;14.404;2023-05-29T13:12:50;2.58;;;1.50;;
65656;SDS011;57397;50.096;14.404;2023-05-29T13:15:20;2.28;;;1.38;;
65656;SDS011;57397;50.096;14.404;2023-05-29T13:17:46;1.73;;;1.40;;
65656;SDS011;57397;50.096;14.404;2023-05-29T13:20:12;2.25;;;1.35;;
65656;SDS011;57397;50.096;14.404;2023-05-29T13:22:39;2.25;;;1.52;;
65656;SDS011;57397;50.096;14.404;2023-05-29T13:25:05;1.98;;;1.23;;
65656;SDS011;57397;50.096;14.404;2023-05-29T13:27:31;1.42;;;1.20;;
65656;SDS011;57397;50.096;14.404;2023-05-29T13:29:59;1.75;;;1.20;;
65656;SDS011;57397;50.096;14.404;2023-05-29T13:32:25;2.20;;;1.60;;
65656;SDS011;57397;50.096;14.404;2023-05-29T13:34:50;2.03;;;1.33;;
65656;SDS011;57397;50.096;14.404;2023-05-29T13:37:16;2.20;;;1.50;;
65656;SDS011;57397;50.096;14.404;2023-05-29T13:39:41;2.03;;;1.63;;
65656;SDS011;57397;50.096;14.404;2023-05-29T13:42:07;2.80;;;1.45;;
65656;SDS011;57397;50.096;14.404;2023-05-29T13:44:33;1.98;;;1.40;;
65656;SDS011;57397;50.096;14.404;2023-05-29T13:46:58;1.63;;;1.33;;
65656;SDS011;57397;50.096;14.404;2023-05-29T13:49:25;2.10;;;1.48;;
65656;SDS011;57397;50.096;14.404;2023-05-29T13:51:51;2.17;;;1.52;;
65656;SDS011;57397;50.096;14.404;2023-05-29T13:54:17;1.65;;;1.35;;
65656;SDS011;57397;50.096;14.404;2023-05-29T13:56:43;2.28;;;1.55;;
65656;SDS011;57397;50.096;14.404;2023-05-29T13:59:09;1.77;;;1.30;;
65656;SDS011;57397;50.096;14.404;2023-05-29T14:01:34;2.15;;;1.38;;
65656;SDS011;57397;50.096;14.404;2023-05-29T14:04:00;1.90;;;1.42;;
65656;SDS011;57397;50.096;14.404;2023-05-29T14:06:26;1.90;;;1.38;;
65656;SDS011;57397;50.096;14.404;2023-05-29T14:08:52;2.13;;;1.58;;
65656;SDS011;57397;50.096;14.404;2023-05-29T14:11:18;1.70;;;1.40;;
65656;SDS011;57397;50.096;14.404;2023-05-29T14:13:44;2.67;;;1.50;;
65656;SDS011;57397;50.096;14.404;2023-05-29T14:16:09;2.00;;;1.50;;
65656;SDS011;57397;50.096;14.404;2023-05-29T14:18:35;1.95;;;1.60;;
65656;SDS011;57397;50.096;14.404;2023-05-29T14:21:00;1.80;;;1.33;;
65656;SDS011;57397;50.096;14.404;2023-05-29T14:23:26;3.50;;;1.70;;
65656;SDS011;57397;50.096;14.404;2023-05-29T14:25:52;2.13;;;1.40;;
65656;SDS011;57397;50.096;14.404;2023-05-29T14:28:17;2.45;;;1.40;;
65656;SDS011;57397;50.096;14.404;2023-05-29T14:30:43;2.00;;;1.40;;
65656;SDS011;57397;50.096;14.404;2023-05-29T14:33:08;2.40;;;1.40;;
65656;SDS011;57397;50.096;14.404;2023-05-29T14:35:34;1.90;;;1.50;;
65656;SDS011;57397;50.096;14.404;2023-05-29T14:38:00;2.25;;;1.50;;
65656;SDS011;57397;50.096;14.404;2023-05-29T14:40:26;2.17;;;1.40;;
65656;SDS011;57397;50.096;14.404;2023-05-29T14:42:51;1.70;;;1.40;;
65656;SDS011;57397;50.096;14.404;2023-05-29T14:45:17;2.13;;;1.50;;
65656;SDS011;57397;50.096;14.404;2023-05-29T14:47:43;2.60;;;1.50;;
65656;SDS011;57397;50.096;14.404;2023-05-29T14:50:08;1.75;;;1.30;;
65656;SDS011;57397;50.096;14.404;2023-05-29T14:52:34;2.65;;;1.30;;
65656;SDS011;57397;50.096;14.404;2023-05-29T14:55:06;2.03;;;1.50;;
65656;SDS011;57397;50.096;14.404;2023-05-29T14:57:32;2.00;;;1.50;;
65656;SDS011;57397;50.096;14.404;2023-05-29T14:59:59;2.15;;;1.50;;
65656;SDS011;57397;50.096;14.404;2023-05-29T15:02:31;1.40;;;1.13;;